createdAt,value
2022-09-13T00:00:35.133Z,4.00
2022-09-13T00:03:05.844Z,3.77
2022-09-13T00:05:37.309Z,3.50
2022-09-13T00:08:08.602Z,3.77
2022-09-13T00:10:40.884Z,3.90
2022-09-13T00:13:13.495Z,3.80
2022-09-13T00:15:46.127Z,3.87
2022-09-13T00:18:17.400Z,3.80
2022-09-13T00:20:48.046Z,3.90
2022-09-13T00:23:18.355Z,3.90
2022-09-13T00:25:48.645Z,4.15
2022-09-13T00:28:19.029Z,4.58
2022-09-13T00:30:49.389Z,4.17
2022-09-13T00:33:19.870Z,3.73
2022-09-13T00:35:50.178Z,3.98
2022-09-13T00:38:20.490Z,4.05
2022-09-13T00:40:50.888Z,3.90
2022-09-13T00:43:24.819Z,4.12
2022-09-13T00:45:55.319Z,4.03
2022-09-13T00:48:25.798Z,4.00
2022-09-13T00:50:57.631Z,3.92
2022-09-13T00:53:33.852Z,4.37
2022-09-13T00:56:10.128Z,4.62
2022-09-13T00:58:46.512Z,4.00
2022-09-13T01:01:18.788Z,4.22
2022-09-13T01:03:50.592Z,4.00
2022-09-13T01:06:23.996Z,3.80
2022-09-13T01:08:54.855Z,4.40
2022-09-13T01:11:37.330Z,3.62
2022-09-13T01:14:09.871Z,4.00
2022-09-13T01:16:40.233Z,3.62
2022-09-13T01:19:10.665Z,3.85
2022-09-13T01:21:49.759Z,3.98
2022-09-13T01:24:28.599Z,3.85
2022-09-13T01:27:17.197Z,3.90
2022-09-13T01:30:12.330Z,4.10
2022-09-13T01:33:06.748Z,3.90
2022-09-13T01:35:52.067Z,3.90
2022-09-13T01:38:44.989Z,3.62
2022-09-13T01:41:27.255Z,3.60
2022-09-13T01:44:25.476Z,3.95
2022-09-13T01:47:21.297Z,3.75
2022-09-13T01:49:57.888Z,3.77
2022-09-13T01:52:51.034Z,4.12
2022-09-13T01:55:33.939Z,3.70
2022-09-13T01:58:25.772Z,4.00
2022-09-13T02:01:10.575Z,3.62
2022-09-13T02:03:55.957Z,4.00
2022-09-13T02:06:29.367Z,3.55
2022-09-13T02:09:05.458Z,4.15
2022-09-13T02:11:38.147Z,3.58
2022-09-13T02:14:20.621Z,3.92
2022-09-13T02:16:56.637Z,3.77
2022-09-13T02:19:38.899Z,3.70
2022-09-13T02:22:11.607Z,4.08
2022-09-13T02:24:45.313Z,3.90
2022-09-13T02:27:22.035Z,4.20
2022-09-13T02:29:55.975Z,4.15
2022-09-13T02:32:29.998Z,4.37
2022-09-13T02:35:24.769Z,4.40
2022-09-13T02:38:15.175Z,4.33
2022-09-13T02:40:49.503Z,3.90
2022-09-13T02:43:25.977Z,4.28
2022-09-13T02:46:17.143Z,4.30
2022-09-13T02:48:53.486Z,4.50
2022-09-13T02:51:26.848Z,4.62
2022-09-13T02:54:12.307Z,4.70
2022-09-13T02:56:57.452Z,4.20
2022-09-13T02:59:28.291Z,4.40
2022-09-13T03:02:07.624Z,4.62
2022-09-13T03:04:38.053Z,4.03
2022-09-13T03:07:13.190Z,4.37
2022-09-13T03:09:49.970Z,4.20
2022-09-13T03:12:38.299Z,4.00
2022-09-13T03:15:11.770Z,4.42
2022-09-13T03:17:58.262Z,4.22
2022-09-13T03:20:55.616Z,4.55
2022-09-13T03:23:37.804Z,4.65
2022-09-13T03:26:28.030Z,4.72
2022-09-13T03:29:07.167Z,4.87
2022-09-13T03:31:52.394Z,4.80
2022-09-13T03:34:45.413Z,4.97
2022-09-13T03:37:18.873Z,4.72
2022-09-13T03:40:08.967Z,4.85
2022-09-13T03:42:45.016Z,4.70
2022-09-13T03:45:18.550Z,5.00
2022-09-13T03:47:50.680Z,4.67
2022-09-13T03:50:24.109Z,4.72
2022-09-13T03:52:57.543Z,5.30
2022-09-13T03:55:29.797Z,5.15
2022-09-13T03:58:01.181Z,4.90
2022-09-13T04:00:32.032Z,4.85
2022-09-13T04:03:02.340Z,4.90
2022-09-13T04:05:34.472Z,5.25
2022-09-13T04:08:06.025Z,5.15
2022-09-13T04:10:37.823Z,4.70
2022-09-13T04:13:08.854Z,5.28
2022-09-13T04:15:39.252Z,5.65
2022-09-13T04:18:10.970Z,5.37
2022-09-13T04:20:41.310Z,5.15
2022-09-13T04:23:11.962Z,5.67
2022-09-13T04:25:42.263Z,7.53
2022-09-13T04:28:12.599Z,5.67
2022-09-13T04:30:48.088Z,5.55
2022-09-13T04:33:18.483Z,6.00
2022-09-13T04:35:49.146Z,5.70
2022-09-13T04:38:19.843Z,5.70
2022-09-13T04:40:55.131Z,6.00
2022-09-13T04:43:25.807Z,6.17
2022-09-13T04:45:58.057Z,6.30
2022-09-13T04:48:28.771Z,6.37
2022-09-13T04:51:05.849Z,6.25
2022-09-13T04:53:37.330Z,6.03
2022-09-13T04:56:09.395Z,6.75
2022-09-13T04:58:39.713Z,6.00
2022-09-13T05:01:11.133Z,6.20
2022-09-13T05:03:41.556Z,6.20
2022-09-13T05:06:15.126Z,6.75
2022-09-13T05:08:47.637Z,6.30
2022-09-13T05:11:18.385Z,6.45
2022-09-13T05:13:57.538Z,6.37
2022-09-13T05:16:30.788Z,6.45
2022-09-13T05:19:02.040Z,6.17
2022-09-13T05:21:32.608Z,6.42
2022-09-13T05:24:03.105Z,6.42
2022-09-13T05:26:33.606Z,8.03
2022-09-13T05:29:04.772Z,7.30
2022-09-13T05:31:40.794Z,6.92
2022-09-13T05:34:14.234Z,7.05
2022-09-13T05:36:45.093Z,6.72
2022-09-13T05:39:32.079Z,6.30
2022-09-13T05:41:50.873Z,6.45
2022-09-13T05:44:21.185Z,7.00
2022-09-13T05:46:51.668Z,6.70
2022-09-13T05:49:22.283Z,6.60
2022-09-13T05:51:52.684Z,7.47
2022-09-13T05:54:24.416Z,7.03
2022-09-13T05:56:56.398Z,6.90
2022-09-13T05:59:26.742Z,7.70
2022-09-13T06:04:59.204Z,8.55
2022-09-13T06:07:29.685Z,8.47
2022-09-13T06:10:00.056Z,9.15
2022-09-13T06:12:30.553Z,9.65
2022-09-13T06:15:00.934Z,10.60
2022-09-13T06:17:31.345Z,10.75
2022-09-13T06:20:01.733Z,10.68
2022-09-13T06:22:33.743Z,11.20
2022-09-13T06:25:05.282Z,11.03
2022-09-13T06:27:35.876Z,11.03
2022-09-13T06:30:08.721Z,10.85
2022-09-13T06:32:42.276Z,11.50
2022-09-13T06:35:14.506Z,11.60
2022-09-13T06:37:45.098Z,11.75
2022-09-13T06:40:17.572Z,11.53
2022-09-13T06:42:49.272Z,11.68
2022-09-13T06:45:19.768Z,11.40
2022-09-13T06:47:50.228Z,11.93
2022-09-13T06:50:20.605Z,11.75
2022-09-13T06:52:51.083Z,11.48
2022-09-13T06:55:22.110Z,12.68
2022-09-13T06:57:52.653Z,12.45
2022-09-13T07:00:23.007Z,12.47
2022-09-13T07:02:53.969Z,12.70
2022-09-13T07:05:24.347Z,12.63
2022-09-13T07:07:56.421Z,12.43
2022-09-13T07:10:26.757Z,11.50
2022-09-13T07:12:57.094Z,11.85
2022-09-13T07:15:27.411Z,11.35
2022-09-13T07:17:57.947Z,11.25
2022-09-13T07:20:28.277Z,10.45
2022-09-13T07:22:58.794Z,10.95
2022-09-13T07:25:29.471Z,11.30
2022-09-13T07:28:00.001Z,11.40
2022-09-13T07:30:30.315Z,10.72
2022-09-13T07:33:00.753Z,10.88
2022-09-13T07:35:31.084Z,10.90
2022-09-13T07:38:01.387Z,10.38
2022-09-13T07:40:33.101Z,10.75
2022-09-13T07:43:03.555Z,10.68
2022-09-13T07:45:34.369Z,10.63
2022-09-13T07:48:04.802Z,10.85
2022-09-13T07:50:35.270Z,9.83
2022-09-13T07:53:05.586Z,10.25
2022-09-13T07:55:35.971Z,10.53
2022-09-13T07:58:06.440Z,9.98
2022-09-13T08:00:36.842Z,10.13
2022-09-13T08:03:08.233Z,9.90
2022-09-13T08:05:42.243Z,10.00
2022-09-13T08:08:12.623Z,9.55
2022-09-13T08:10:46.343Z,10.60
2022-09-13T08:13:17.310Z,10.38
2022-09-13T08:15:48.563Z,10.15
2022-09-13T08:18:20.197Z,10.35
2022-09-13T08:20:50.613Z,10.30
2022-09-13T08:23:20.954Z,9.30
2022-09-13T08:25:51.378Z,9.60
2022-09-13T08:28:27.362Z,11.95
2022-09-13T08:30:55.552Z,9.03
2022-09-13T08:33:26.020Z,9.50
2022-09-13T08:35:58.118Z,9.33
2022-09-13T08:38:29.443Z,9.38
2022-09-13T08:41:06.385Z,9.40
2022-09-13T08:43:42.805Z,9.25
2022-09-13T08:46:28.671Z,9.08
2022-09-13T08:49:02.279Z,9.18
2022-09-13T08:51:47.821Z,9.60
2022-09-13T08:54:20.230Z,9.05
2022-09-13T08:57:22.142Z,9.05
2022-09-13T09:00:16.765Z,8.90
2022-09-13T09:02:58.078Z,9.08
2022-09-13T09:05:30.781Z,8.88
2022-09-13T09:08:13.465Z,9.70
2022-09-13T09:10:49.757Z,8.60
2022-09-13T09:13:38.831Z,8.88
2022-09-13T09:16:27.498Z,8.65
2022-09-13T09:19:01.016Z,8.88
2022-09-13T09:21:32.281Z,8.25
2022-09-13T09:24:05.436Z,14.75
2022-09-13T09:26:35.907Z,9.05
2022-09-13T09:29:24.851Z,8.80
2022-09-13T09:31:59.630Z,8.80
2022-09-13T09:35:03.202Z,8.25
2022-09-13T09:37:36.996Z,8.23
2022-09-13T09:40:10.359Z,8.13
2022-09-13T09:42:43.906Z,8.08
2022-09-13T09:45:29.519Z,7.50
2022-09-13T09:48:03.400Z,7.33
2022-09-13T09:50:36.851Z,7.45
2022-09-13T09:53:15.923Z,6.65
2022-09-13T09:55:55.284Z,7.00
2022-09-13T09:58:43.100Z,7.53
2022-09-13T10:01:22.478Z,6.92
2022-09-13T10:04:04.945Z,7.37
2022-09-13T10:06:37.810Z,6.80
2022-09-13T10:09:17.133Z,7.25
2022-09-13T10:11:58.357Z,7.17
2022-09-13T10:14:46.200Z,6.60
2022-09-13T10:17:19.636Z,7.45
2022-09-13T10:20:02.080Z,7.30
2022-09-13T10:22:33.872Z,6.97
2022-09-13T10:25:21.362Z,7.12
2022-09-13T10:27:54.725Z,7.55
2022-09-13T10:30:43.490Z,8.05
2022-09-13T10:33:35.339Z,8.05
2022-09-13T10:36:08.760Z,7.55
2022-09-13T10:38:47.501Z,7.87
2022-09-13T10:41:22.920Z,7.80
2022-09-13T10:44:01.250Z,8.20
2022-09-13T10:46:36.818Z,8.05
2022-09-13T10:49:07.141Z,8.40
2022-09-13T10:51:38.925Z,9.05
2022-09-13T10:54:26.185Z,8.38
2022-09-13T10:56:56.581Z,8.48
2022-09-13T10:59:29.966Z,8.20
2022-09-13T11:02:28.770Z,8.80
2022-09-13T11:05:23.636Z,8.00
2022-09-13T11:08:05.426Z,8.55
2022-09-13T11:10:41.753Z,8.50
2022-09-13T11:13:27.393Z,8.05
2022-09-13T11:16:10.111Z,8.70
2022-09-13T11:18:43.624Z,8.83
2022-09-13T11:21:19.789Z,8.78
2022-09-13T11:23:56.340Z,8.53
2022-09-13T11:26:47.938Z,8.68
2022-09-13T11:29:41.075Z,8.65
2022-09-13T11:32:17.057Z,8.25
2022-09-13T11:35:02.351Z,7.95
2022-09-13T11:37:38.689Z,8.90
2022-09-13T11:40:14.070Z,14.60
2022-09-13T11:43:01.890Z,8.15
2022-09-13T11:45:41.326Z,8.03
2022-09-13T11:48:48.501Z,8.33
2022-09-13T11:51:27.771Z,9.28
2022-09-13T11:54:24.044Z,8.90
2022-09-13T11:57:00.313Z,8.60
2022-09-13T11:59:36.477Z,8.95
2022-09-13T12:02:12.404Z,8.73
2022-09-13T12:05:18.433Z,9.33
2022-09-13T12:07:38.569Z,9.68
2022-09-13T12:10:35.896Z,9.73
2022-09-13T12:13:09.376Z,9.48
2022-09-13T12:15:42.616Z,9.88
2022-09-13T12:18:31.266Z,9.93
2022-09-13T12:21:08.848Z,9.95
2022-09-13T12:23:42.350Z,10.18
2022-09-13T12:26:37.196Z,10.60
2022-09-13T12:29:16.635Z,10.00
2022-09-13T12:31:47.241Z,23.35
2022-09-13T12:34:45.128Z,11.33
2022-09-13T12:37:27.802Z,10.80
2022-09-13T12:40:04.395Z,10.80
2022-09-13T12:42:38.146Z,10.28
2022-09-13T12:45:20.571Z,10.23
2022-09-13T12:48:02.623Z,9.80
2022-09-13T12:51:08.339Z,9.23
2022-09-13T12:54:09.591Z,8.50
2022-09-13T12:57:08.945Z,7.47
2022-09-13T13:00:04.129Z,7.95
2022-09-13T13:02:38.006Z,8.05
2022-09-13T13:05:27.898Z,8.45
2022-09-13T13:08:07.199Z,9.10
2022-09-13T13:10:39.583Z,9.83
2022-09-13T13:13:25.422Z,9.30
2022-09-13T13:15:59.275Z,9.78
2022-09-13T13:18:32.593Z,9.10
2022-09-13T13:21:06.116Z,9.88
2022-09-13T13:23:41.163Z,8.98
2022-09-13T13:26:14.554Z,9.53
2022-09-13T13:28:49.651Z,8.78
2022-09-13T13:31:30.927Z,8.80
2022-09-13T13:34:11.076Z,8.95
2022-09-13T13:36:44.788Z,8.33
2022-09-13T13:39:26.957Z,7.80
2022-09-13T13:41:59.477Z,7.72
2022-09-13T13:44:32.866Z,6.95
2022-09-13T13:47:13.206Z,6.97
2022-09-13T13:49:52.446Z,5.97
2022-09-13T13:52:25.946Z,5.20
2022-09-13T13:55:16.091Z,4.67
2022-09-13T13:57:52.116Z,4.75
2022-09-13T14:00:25.493Z,4.95
2022-09-13T14:02:58.960Z,5.30
2022-09-13T14:05:47.261Z,4.72
2022-09-13T14:08:40.131Z,4.60
2022-09-13T14:11:49.284Z,4.90
2022-09-13T14:14:54.475Z,5.00
2022-09-13T14:17:39.637Z,6.60
2022-09-13T14:20:13.548Z,4.90
2022-09-13T14:22:44.128Z,4.67
2022-09-13T14:25:23.706Z,4.83
2022-09-13T14:28:01.424Z,4.78
2022-09-13T14:30:34.946Z,5.70
2022-09-13T14:33:07.960Z,5.00
2022-09-13T14:35:40.374Z,5.12
2022-09-13T14:38:30.488Z,4.10
2022-09-13T14:41:13.313Z,4.42
2022-09-13T14:43:45.271Z,4.67
2022-09-13T14:46:27.919Z,4.20
2022-09-13T14:49:07.739Z,4.03
2022-09-13T14:51:47.387Z,4.53
2022-09-13T14:54:21.611Z,4.40
2022-09-13T14:56:57.991Z,4.45
2022-09-13T14:59:31.757Z,4.85
2022-09-13T15:02:26.472Z,4.47
2022-09-13T15:05:00.754Z,5.20
2022-09-13T15:07:39.560Z,4.87
2022-09-13T15:10:22.243Z,5.35
2022-09-13T15:12:58.351Z,5.47
2022-09-13T15:15:34.672Z,6.22
2022-09-13T15:18:08.174Z,6.62
2022-09-13T15:21:04.275Z,5.95
2022-09-13T15:23:41.518Z,6.60
2022-09-13T15:26:14.483Z,7.58
2022-09-13T15:29:00.595Z,7.87
2022-09-13T15:31:33.271Z,7.67
2022-09-13T15:34:22.125Z,7.45
2022-09-13T15:37:04.775Z,7.42
2022-09-13T15:39:48.321Z,7.25
2022-09-13T15:42:19.552Z,7.75
2022-09-13T15:45:00.932Z,8.08
2022-09-13T15:47:26.479Z,7.83
2022-09-13T15:49:57.227Z,6.62
2022-09-13T15:52:27.562Z,6.83
2022-09-13T15:54:57.951Z,7.92
2022-09-13T15:57:31.043Z,8.23
2022-09-13T16:00:06.400Z,7.90
2022-09-13T16:02:36.114Z,7.60
2022-09-13T16:05:08.596Z,6.97
2022-09-13T16:07:42.285Z,6.65
2022-09-13T16:10:18.846Z,6.50
2022-09-13T16:12:49.573Z,6.33
2022-09-13T16:15:20.185Z,6.35
2022-09-13T16:17:50.487Z,6.03
2022-09-13T16:20:21.574Z,5.92
2022-09-13T16:22:51.946Z,5.40
2022-09-13T16:25:22.738Z,5.55
2022-09-13T16:27:54.720Z,5.72
2022-09-13T16:30:25.435Z,5.37
2022-09-13T16:32:55.806Z,5.62
2022-09-13T16:35:29.797Z,5.58
2022-09-13T16:38:00.265Z,5.97
2022-09-13T16:40:30.683Z,5.70
2022-09-13T16:43:01.148Z,5.78
2022-09-13T16:45:31.625Z,5.85
2022-09-13T16:48:02.027Z,6.53
2022-09-13T16:50:34.946Z,6.35
2022-09-13T16:53:04.553Z,5.85
2022-09-13T16:55:35.209Z,5.72
2022-09-13T16:58:05.721Z,5.62
2022-09-13T17:00:36.102Z,5.78
2022-09-13T17:03:06.578Z,6.17
2022-09-13T17:05:37.005Z,5.70
2022-09-13T17:08:07.311Z,5.65
2022-09-13T17:10:39.171Z,5.95
2022-09-13T17:13:12.051Z,6.30
2022-09-13T17:15:43.270Z,6.00
2022-09-13T17:18:13.635Z,6.37
2022-09-13T17:20:51.527Z,5.12
2022-09-13T17:23:21.915Z,5.65
2022-09-13T17:25:52.976Z,6.92
2022-09-13T17:28:23.284Z,5.40
2022-09-13T17:30:58.412Z,5.45
2022-09-13T17:33:25.724Z,4.95
2022-09-13T17:36:04.753Z,5.20
2022-09-13T17:38:37.170Z,5.78
2022-09-13T17:41:12.981Z,5.30
2022-09-13T17:43:44.353Z,6.47
2022-09-13T17:46:17.901Z,6.12
2022-09-13T17:48:50.782Z,6.58
2022-09-13T17:51:24.056Z,5.80
2022-09-13T17:53:58.599Z,5.40
2022-09-13T17:56:37.705Z,5.75
2022-09-13T17:59:11.121Z,5.50
2022-09-13T18:01:44.186Z,4.97
2022-09-13T18:04:16.394Z,4.75
2022-09-13T18:06:46.847Z,4.72
2022-09-13T18:09:18.248Z,5.35
2022-09-13T18:11:48.971Z,4.72
2022-09-13T18:14:20.479Z,4.97
2022-09-13T18:16:52.648Z,4.92
2022-09-13T18:19:44.261Z,5.20
2022-09-13T18:21:56.391Z,5.00
2022-09-13T18:24:26.911Z,5.00
2022-09-13T18:26:57.359Z,4.20
2022-09-13T18:29:29.733Z,4.22
2022-09-13T18:32:00.320Z,4.50
2022-09-13T18:34:30.715Z,4.37
2022-09-13T18:37:01.021Z,5.47
2022-09-13T18:39:31.594Z,5.28
2022-09-13T18:42:01.927Z,3.77
2022-09-13T18:44:34.028Z,4.55
2022-09-13T18:47:05.145Z,4.20
2022-09-13T18:49:35.461Z,3.90
2022-09-13T18:52:06.118Z,4.17
2022-09-13T18:54:36.545Z,4.30
2022-09-13T18:57:06.899Z,4.30
2022-09-13T18:59:37.394Z,5.05
2022-09-13T19:02:07.900Z,4.67
2022-09-13T19:04:38.449Z,4.97
2022-09-13T19:07:08.904Z,4.92
2022-09-13T19:09:39.330Z,4.50
2022-09-13T19:12:09.715Z,4.60
2022-09-13T19:14:40.195Z,4.42
2022-09-13T19:17:10.581Z,5.45
2022-09-13T19:19:41.091Z,6.22
2022-09-13T19:22:11.783Z,5.67
2022-09-13T19:24:42.244Z,5.65
2022-09-13T19:27:13.326Z,4.85
2022-09-13T19:29:43.790Z,5.62
2022-09-13T19:32:15.324Z,5.28
2022-09-13T19:34:45.735Z,5.20
2022-09-13T19:37:16.114Z,5.53
2022-09-13T19:39:46.577Z,5.47
2022-09-13T19:42:16.993Z,5.60
2022-09-13T19:44:55.527Z,5.55
2022-09-13T19:49:59.029Z,5.47
2022-09-13T19:52:29.504Z,5.42
2022-09-13T19:54:59.825Z,5.55
2022-09-13T19:57:30.787Z,5.50
2022-09-13T20:00:01.176Z,5.40
2022-09-13T20:02:31.552Z,5.45
2022-09-13T20:05:02.059Z,5.47
2022-09-13T20:07:32.442Z,4.75
2022-09-13T20:10:02.753Z,5.08
2022-09-13T20:12:33.113Z,4.90
2022-09-13T20:15:03.513Z,4.42
2022-09-13T20:17:34.035Z,5.40
2022-09-13T20:20:04.941Z,4.67
2022-09-13T20:22:35.273Z,4.33
2022-09-13T20:25:06.142Z,4.50
2022-09-13T20:27:38.580Z,4.22
2022-09-13T20:30:11.248Z,3.98
2022-09-13T20:32:41.801Z,4.75
2022-09-13T20:35:12.195Z,4.50
2022-09-13T20:37:46.063Z,4.35
2022-09-13T20:40:17.396Z,3.92
2022-09-13T20:42:49.060Z,3.65
2022-09-13T20:45:19.540Z,3.50
2022-09-13T20:47:49.929Z,4.05
2022-09-13T20:50:20.359Z,3.20
2022-09-13T20:52:50.781Z,3.37
2022-09-13T20:55:21.187Z,3.12
2022-09-13T20:57:51.704Z,3.25
2022-09-13T21:00:22.082Z,3.00
2022-09-13T21:02:52.790Z,3.62
2022-09-13T21:05:23.271Z,3.27
2022-09-13T21:08:11.939Z,3.20
2022-09-13T21:10:42.266Z,3.33
2022-09-13T21:13:12.633Z,3.00
2022-09-13T21:15:43.781Z,3.00
2022-09-13T21:18:14.163Z,2.90
2022-09-13T21:20:44.751Z,3.35
2022-09-13T21:23:15.152Z,3.17
2022-09-13T21:25:46.048Z,3.37
2022-09-13T21:28:17.564Z,2.67
2022-09-13T21:30:58.561Z,3.45
2022-09-13T21:33:29.296Z,2.98
2022-09-13T21:36:01.556Z,2.80
2022-09-13T21:38:34.096Z,3.10
2022-09-13T21:41:07.715Z,2.90
2022-09-13T21:43:38.203Z,2.75
2022-09-13T21:46:16.652Z,2.65
2022-09-13T21:48:49.406Z,2.95
2022-09-13T21:51:28.173Z,2.83
2022-09-13T21:54:00.904Z,2.92
2022-09-13T21:56:32.907Z,2.40
2022-09-13T21:59:04.666Z,2.45
2022-09-13T22:01:39.165Z,2.60
2022-09-13T22:04:14.034Z,2.40
2022-09-13T22:06:45.716Z,2.40
2022-09-13T22:09:16.597Z,2.90
2022-09-13T22:11:49.513Z,2.40
2022-09-13T22:14:22.119Z,2.60
2022-09-13T22:16:53.392Z,2.10
2022-09-13T22:19:33.239Z,2.40
2022-09-13T22:22:00.774Z,2.45
2022-09-13T22:24:32.406Z,1.98
2022-09-13T22:27:02.894Z,2.40
2022-09-13T22:29:33.224Z,2.60
2022-09-13T22:32:05.486Z,2.12
2022-09-13T22:34:35.763Z,1.87
2022-09-13T22:37:06.077Z,1.90
2022-09-13T22:39:36.545Z,1.90
2022-09-13T22:42:06.987Z,2.00
2022-09-13T22:44:37.360Z,2.25
2022-09-13T22:47:07.720Z,2.15
2022-09-13T22:49:38.064Z,2.22
2022-09-13T22:52:08.461Z,2.05
2022-09-13T22:54:38.786Z,2.22
2022-09-13T22:57:09.188Z,2.37
2022-09-13T22:59:39.487Z,2.50
2022-09-13T23:02:09.881Z,2.42
2022-09-13T23:04:40.568Z,2.15
2022-09-13T23:07:11.246Z,2.10
2022-09-13T23:09:41.865Z,2.30
2022-09-13T23:12:12.337Z,2.33
2022-09-13T23:14:42.714Z,2.52
2022-09-13T23:17:13.313Z,2.30
2022-09-13T23:19:46.270Z,2.60
2022-09-13T23:22:15.697Z,2.60
2022-09-13T23:24:46.083Z,2.80
2022-09-13T23:27:16.600Z,2.45
2022-09-13T23:29:47.147Z,2.67
2022-09-13T23:32:17.806Z,2.60
2022-09-13T23:34:48.316Z,2.70
2022-09-13T23:37:18.687Z,2.55
2022-09-13T23:39:49.197Z,3.10
2022-09-13T23:42:19.721Z,2.70
2022-09-13T23:44:50.106Z,2.52
2022-09-13T23:47:21.424Z,2.60
2022-09-13T23:49:51.926Z,2.47
2022-09-13T23:52:22.405Z,2.65
2022-09-13T23:54:52.886Z,2.58
2022-09-13T23:57:24.125Z,2.33
2022-09-13T23:59:54.496Z,2.40
